Arnold, Illinois
Current Conditions -  °F | °C
As of 9:55 AM on Wednesday 28 Jan 2015 (Local Time) from KIJX Reporting Station
Clear Clear  
Wind Chill: 27°   Ceiling: Unl
Heat Index: 36°   Visibility: 10mi
Dew Point: 29°   Wind: 13mph
Humidity: 76%   Direction: 150°SSE
Pressure: 30.2"   Gusts: 22mph
Location:  39.7413°N, 90.2138°W
Report Text: KIJX 281555Z AUTO 15011G19KT 10SM CLR 02/M02 A3020 RMK AO2 T00201019
Loading
Personal Weather Stations






























Interactive Weather Map New forecast layout! Learn more

10-Day Weather Forecast

Advertisements
Track Severe Weather on mobile